Swift Current, Swift Current Airport (CYYN)

NameSwift Current Airport
CitySwift Current
CountryCanada
ICAOCYYN
IATAYYN
Altitude817 m
CoordinatesGoogle Map
Live Air TrafficLiveATC.net
METARCYYN 181000Z AUTO 26015G20KT 9SM CLR 04/M01 A2941 RMK SLP967
2019-10-18 10:00:00 Wind: West-Southwest (260°) 7.72 m/s - Visibility: 14484.06 m - Temperature: 4 °C - Dew point: -1 °C - Humidity: 70.2% - Pressure: 995.94 hPa

Sorry, no flights used the airport in this database.